Time;durP1;ratioP1;P1;durP2;ratioP2;P2;SDS_P1;SDS_P2;PMS_P1;PMS_P2;Temp;Humidity;BMP_temperature;BMP_pressure;BME280_temperature;BME280_humidity;BME280_pressure;Samples;Min_cycle;Max_cycle;Signal;HPM_P1;HPM_P2
2021/12/18 00:00:20;;;;;;;51.20;31.98;;;2.70;99.90;;;;;;5031086;28;20037;-86
2021/12/18 00:03:12;;;;;;;51.67;31.70;;;2.60;99.90;;;;;;5048431;28;20064;-85
2021/12/18 00:06:00;;;;;;;51.33;31.85;;;2.60;99.90;;;;;;5024977;28;20045;-85
2021/12/18 00:08:51;;;;;;;54.10;33.60;;;2.50;99.90;;;;;;5040016;28;20044;-84
2021/12/18 00:11:40;;;;;;;56.75;33.92;;;2.50;99.90;;;;;;5017566;28;20060;-89
2021/12/18 00:14:27;;;;;;;53.13;33.88;;;2.50;99.90;;;;;;5036849;28;20132;-89
2021/12/18 00:17:15;;;;;;;54.30;33.05;;;2.50;99.90;;;;;;5025916;28;20049;-88
2021/12/18 00:20:08;;;;;;;55.05;33.67;;;2.50;99.90;;;;;;5039859;28;20053;-88
2021/12/18 00:22:57;;;;;;;;;;;2.50;99.90;;;;;;5033393;28;20037;-87
2021/12/18 00:25:50;;;;;;;55.67;33.92;;;2.50;99.90;;;;;;5053352;28;19925;-85
2021/12/18 00:28:38;;;;;;;51.55;33.58;;;2.50;99.90;;;;;;5017876;28;20048;-87
2021/12/18 00:31:27;;;;;;;56.72;34.10;;;2.60;99.90;;;;;;5018936;28;20104;-87
2021/12/18 00:34:17;;;;;;;52.30;33.88;;;2.60;99.90;;;;;;5029539;28;20111;-87
2021/12/18 00:37:09;;;;;;;54.50;34.85;;;2.60;99.90;;;;;;5023227;28;20191;-86
2021/12/18 00:40:08;;;;;;;53.20;32.22;;;2.60;99.90;;;;;;5016695;28;20104;-88
2021/12/18 00:43:13;;;;;;;55.88;35.33;;;2.50;99.90;;;;;;5043189;28;20183;-89
2021/12/18 00:46:07;;;;;;;53.22;33.33;;;2.50;99.90;;;;;;5043672;28;20055;-88
2021/12/18 00:48:57;;;;;;;54.10;33.45;;;2.50;99.90;;;;;;5025293;28;20041;-87
2021/12/18 00:51:46;;;;;;;56.55;34.65;;;2.40;99.90;;;;;;5051885;28;20049;-87
2021/12/18 00:54:35;;;;;;;54.00;33.58;;;2.40;99.90;;;;;;5057787;28;20056;-87
2021/12/18 00:57:30;;;;;;;57.00;34.72;;;2.40;99.90;;;;;;5037074;28;20041;-88
2021/12/18 01:00:23;;;;;;;54.25;33.05;;;2.40;99.90;;;;;;5029459;28;20053;-89
2021/12/18 01:03:19;;;;;;;56.15;35.05;;;2.40;99.90;;;;;;5021749;28;20065;-88
2021/12/18 01:06:10;;;;;;;61.25;35.75;;;2.30;99.90;;;;;;5029509;28;20046;-86
2021/12/18 01:09:04;;;;;;;61.78;36.47;;;2.30;99.90;;;;;;5027191;28;20068;-85
2021/12/18 01:11:54;;;;;;;57.88;35.65;;;2.30;99.90;;;;;;5043282;28;20051;-87
2021/12/18 01:23:34;;;;;;;57.97;35.35;;;2.30;99.90;;;;;;5031874;28;20042;-86
2021/12/18 01:26:23;;;;;;;64.15;36.47;;;2.30;99.90;;;;;;5019535;28;20041;-87
2021/12/18 01:29:11;;;;;;;61.10;36.35;;;2.30;99.90;;;;;;5032014;28;20053;-86
2021/12/18 01:31:59;;;;;;;62.20;34.88;;;2.30;99.90;;;;;;5028558;28;20104;-86
2021/12/18 01:34:48;;;;;;;66.38;35.65;;;2.20;99.90;;;;;;5043948;28;20071;-88
2021/12/18 01:37:39;;;;;;;64.45;36.50;;;2.20;99.90;;;;;;5029808;28;20049;-86
2021/12/18 01:40:28;;;;;;;68.45;37.28;;;2.20;99.90;;;;;;5032899;28;20037;-87
2021/12/18 01:46:38;;;;;;;59.28;36.45;;;2.10;99.90;;;;;;5049800;28;20054;-88
2021/12/18 01:52:33;;;;;;;62.25;37.58;;;2.10;99.90;;;;;;5034965;28;20045;-86
2021/12/18 01:55:31;;;;;;;63.70;36.13;;;2.20;99.90;;;;;;5048785;28;20037;-87
2021/12/18 01:58:23;;;;;;;65.03;36.88;;;2.10;99.90;;;;;;5030269;28;20060;-88
2021/12/18 02:01:13;;;;;;;61.28;35.05;;;2.10;99.90;;;;;;5028298;28;20789;-89
2021/12/18 02:04:01;;;;;;;65.95;37.60;;;2.00;99.90;;;;;;5024761;28;20408;-88
2021/12/18 02:06:48;;;;;;;62.17;36.67;;;2.10;99.90;;;;;;5016627;28;20046;-87
2021/12/18 02:21:59;;;;;;;69.55;39.95;;;2.00;99.90;;;;;;5023772;28;20112;-86
2021/12/18 02:24:47;;;;;;;70.07;38.58;;;2.00;99.90;;;;;;5032765;28;20478;-88
2021/12/18 02:27:35;;;;;;;72.82;39.70;;;2.00;99.90;;;;;;5027050;28;20499;-87
2021/12/18 02:30:25;;;;;;;71.30;39.72;;;2.00;99.90;;;;;;5001098;28;20069;-87
2021/12/18 02:33:13;;;;;;;75.32;39.63;;;1.90;99.90;;;;;;5027761;28;20131;-87
2021/12/18 02:36:06;;;;;;;75.32;41.35;;;1.90;99.90;;;;;;5026471;28;20046;-87
2021/12/18 02:39:20;;;;;;;69.63;40.10;;;1.90;99.90;;;;;;5036327;28;20077;-84
2021/12/18 02:45:00;;;;;;;72.28;40.10;;;1.90;99.90;;;;;;5025203;28;20042;-90
2021/12/18 02:47:48;;;;;;;74.65;40.05;;;2.00;99.90;;;;;;5033858;28;20188;-89
2021/12/18 02:50:39;;;;;;;72.72;40.10;;;2.00;99.90;;;;;;5023245;28;20046;-89
2021/12/18 02:53:27;;;;;;;67.65;38.70;;;1.90;99.90;;;;;;5029237;28;20065;-87
2021/12/18 02:56:18;;;;;;;72.28;38.45;;;1.90;99.90;;;;;;5015008;28;20128;-85
2021/12/18 02:59:08;;;;;;;71.20;39.20;;;1.80;99.90;;;;;;5027875;28;20091;-85
2021/12/18 03:02:02;;;;;;;78.90;42.55;;;1.80;99.90;;;;;;5041988;28;20561;-88
2021/12/18 03:04:59;;;;;;;78.28;41.85;;;1.80;99.90;;;;;;5023968;28;20052;-89
2021/12/18 03:07:47;;;;;;;82.53;42.15;;;1.70;99.90;;;;;;5037693;28;20064;-88
2021/12/18 03:26:17;;;;;;;77.80;38.17;;;1.50;99.90;;;;;;5056544;28;20053;-86
2021/12/18 03:29:15;;;;;;;87.20;41.78;;;1.50;99.90;;;;;;5044916;28;20053;-86
2021/12/18 03:32:04;;;;;;;85.88;42.35;;;1.50;99.90;;;;;;5027503;28;20049;-88
2021/12/18 03:34:53;;;;;;;79.35;40.83;;;1.50;99.90;;;;;;5021759;28;20124;-86
2021/12/18 03:37:44;;;;;;;88.80;40.72;;;1.50;99.90;;;;;;5033616;28;20049;-87
2021/12/18 03:40:32;;;;;;;78.97;39.42;;;1.50;99.90;;;;;;5060217;28;20056;-87
2021/12/18 03:43:19;;;;;;;78.47;40.08;;;1.50;99.90;;;;;;5004864;28;20037;-87
2021/12/18 03:46:07;;;;;;;83.78;41.70;;;1.50;99.90;;;;;;5034321;28;20060;-87
2021/12/18 03:48:58;;;;;;;82.13;39.53;;;1.50;99.90;;;;;;5044102;28;20053;-88
2021/12/18 03:51:45;;;;;;;85.80;40.90;;;1.50;99.90;;;;;;5051542;28;20045;-86
2021/12/18 03:54:33;;;;;;;90.25;41.90;;;1.50;99.90;;;;;;5033032;28;20103;-86
2021/12/18 03:57:21;;;;;;;93.88;43.28;;;1.40;99.90;;;;;;5028933;28;20058;-85
2021/12/18 04:00:12;;;;;;;96.85;41.95;;;1.40;99.90;;;;;;5035287;28;20041;-85
2021/12/18 04:03:00;;;;;;;103.22;44.92;;;1.40;99.90;;;;;;5051683;28;20164;-86
2021/12/18 04:05:50;;;;;;;113.80;46.60;;;1.40;99.90;;;;;;5010786;28;20090;-86
2021/12/18 04:08:38;;;;;;;103.35;45.22;;;1.30;99.90;;;;;;5027310;28;20351;-85
2021/12/18 04:11:31;;;;;;;105.28;45.35;;;1.30;99.90;;;;;;5046498;28;20045;-89
2021/12/18 04:14:21;;;;;;;107.25;46.72;;;1.20;99.90;;;;;;5041339;28;20095;-88
2021/12/18 04:17:08;;;;;;;105.35;44.03;;;1.30;99.90;;;;;;5049052;28;20052;-88
2021/12/18 04:20:17;;;;;;;117.57;47.97;;;1.30;99.90;;;;;;5039672;28;20057;-86
2021/12/18 04:23:07;;;;;;;108.53;44.53;;;1.30;99.90;;;;;;5034729;28;20048;-88
2021/12/18 04:25:56;;;;;;;106.40;42.83;;;1.30;99.90;;;;;;5032563;28;20064;-90
2021/12/18 04:28:44;;;;;;;112.13;43.53;;;1.30;99.90;;;;;;5024248;28;20045;-87
2021/12/18 04:31:34;;;;;;;103.13;41.70;;;1.30;99.90;;;;;;5047302;28;20053;-87
2021/12/18 04:34:21;;;;;;;103.53;42.40;;;1.20;99.90;;;;;;5047253;28;20701;-87
2021/12/18 04:37:10;;;;;;;105.63;41.28;;;1.10;99.90;;;;;;5027351;28;20044;-86
2021/12/18 04:39:59;;;;;;;101.80;41.90;;;1.10;99.90;;;;;;5043152;28;20052;-89
2021/12/18 04:42:47;;;;;;;102.45;42.17;;;1.10;99.90;;;;;;5040741;28;20049;-89
2021/12/18 04:45:36;;;;;;;106.28;40.53;;;1.00;99.90;;;;;;5025584;28;20105;-88
2021/12/18 04:48:23;;;;;;;100.60;40.97;;;1.00;99.90;;;;;;5029539;28;20037;-86
2021/12/18 04:51:11;;;;;;;99.75;40.22;;;1.00;99.90;;;;;;5037115;28;20056;-86
2021/12/18 04:53:58;;;;;;;97.65;38.58;;;1.00;99.90;;;;;;5037075;28;20069;-87
2021/12/18 04:56:46;;;;;;;94.57;36.92;;;1.00;99.90;;;;;;5028449;28;20068;-86
2021/12/18 04:59:42;;;;;;;89.40;36.75;;;0.90;99.90;;;;;;5033842;28;20033;-86
2021/12/18 05:06:52;;;;;;;82.93;34.30;;;0.80;99.90;;;;;;5028833;28;20024;-87
2021/12/18 05:09:41;;;;;;;92.25;36.03;;;0.80;99.90;;;;;;5031846;28;20120;-88
2021/12/18 05:12:30;;;;;;;89.65;36.72;;;0.90;99.90;;;;;;5040306;28;20049;-86
2021/12/18 05:15:19;;;;;;;90.70;35.65;;;0.80;99.90;;;;;;5042535;28;20134;-87
2021/12/18 05:18:07;;;;;;;90.45;36.10;;;0.80;99.90;;;;;;5033611;28;20076;-89
2021/12/18 05:20:56;;;;;;;88.82;35.72;;;0.80;99.90;;;;;;5022593;28;20127;-87
2021/12/18 05:23:45;;;;;;;97.57;36.78;;;0.80;99.90;;;;;;5033515;28;20046;-85
2021/12/18 05:26:35;;;;;;;105.43;36.95;;;0.80;99.90;;;;;;5022040;28;20180;-88
2021/12/18 05:29:24;;;;;;;102.80;37.90;;;0.70;99.90;;;;;;5044433;28;20124;-89
2021/12/18 05:32:11;;;;;;;102.25;37.05;;;0.60;99.90;;;;;;5041904;28;20060;-88
2021/12/18 05:34:59;;;;;;;103.38;35.85;;;0.60;99.90;;;;;;5043629;28;20033;-87
2021/12/18 05:38:04;;;;;;;111.10;36.05;;;0.60;99.90;;;;;;5045371;28;20109;-89
2021/12/18 05:40:51;;;;;;;101.32;37.90;;;0.50;99.90;;;;;;5040088;28;20100;-87
2021/12/18 05:43:39;;;;;;;105.95;38.92;;;0.50;99.90;;;;;;5051212;28;20049;-87
2021/12/18 05:46:33;;;;;;;117.07;40.72;;;0.60;99.90;;;;;;5046333;28;20084;-87
2021/12/18 05:49:23;;;;;;;139.55;42.63;;;0.60;99.90;;;;;;5034175;28;20046;-86
2021/12/18 05:52:10;;;;;;;111.50;40.42;;;0.60;99.90;;;;;;5028382;28;20046;-88
2021/12/18 05:54:59;;;;;;;118.55;40.78;;;0.50;99.90;;;;;;5054778;28;20117;-88
2021/12/18 05:57:46;;;;;;;114.65;38.83;;;0.50;99.90;;;;;;5037812;28;20034;-88
2021/12/18 06:00:39;;;;;;;116.05;41.00;;;0.60;99.90;;;;;;5039926;28;20041;-89
2021/12/18 06:03:27;;;;;;;124.05;40.90;;;0.60;99.90;;;;;;5034140;28;20050;-88
2021/12/18 06:06:15;;;;;;;120.70;41.97;;;0.60;99.90;;;;;;5015639;28;20092;-86
2021/12/18 06:09:11;;;;;;;121.25;42.83;;;0.60;99.90;;;;;;5037906;28;20076;-88
2021/12/18 06:12:03;;;;;;;116.57;40.72;;;0.60;99.90;;;;;;5036033;28;20064;-88
2021/12/18 06:14:52;;;;;;;117.32;41.03;;;0.60;99.90;;;;;;5039171;28;20053;-87
2021/12/18 06:17:39;;;;;;;111.80;39.00;;;0.50;99.90;;;;;;5032810;28;20115;-87
2021/12/18 06:20:45;;;;;;;114.18;38.50;;;0.60;99.90;;;;;;5036232;28;20052;-88
2021/12/18 06:23:33;;;;;;;113.45;39.17;;;0.60;99.90;;;;;;5041582;28;20049;-86
2021/12/18 06:26:27;;;;;;;109.18;38.33;;;0.60;99.90;;;;;;5041374;28;20041;-86
2021/12/18 06:29:19;;;;;;;107.63;36.22;;;0.60;99.90;;;;;;5052459;28;20045;-86
2021/12/18 06:32:07;;;;;;;128.05;38.13;;;0.60;99.90;;;;;;5059589;28;20128;-88
2021/12/18 06:34:54;;;;;;;108.20;37.10;;;0.60;99.90;;;;;;5030870;28;20049;-85
2021/12/18 06:37:42;;;;;;;125.20;40.53;;;0.60;99.90;;;;;;5038125;28;20121;-88
2021/12/18 06:40:33;;;;;;;142.75;41.50;;;0.50;99.90;;;;;;5049811;28;20042;-87
2021/12/18 06:43:23;;;;;;;132.15;41.55;;;0.50;99.90;;;;;;5042897;28;20128;-88
2021/12/18 06:46:10;;;;;;;123.00;41.47;;;0.50;99.90;;;;;;5037765;28;20113;-88
2021/12/18 06:48:58;;;;;;;122.03;40.58;;;0.50;99.90;;;;;;5036069;28;20052;-87
2021/12/18 06:51:46;;;;;;;137.68;42.00;;;0.50;99.90;;;;;;5033120;28;20049;-89
2021/12/18 06:54:36;;;;;;;125.00;42.80;;;0.50;99.90;;;;;;5018447;28;20038;-87
2021/12/18 06:57:26;;;;;;;117.88;39.58;;;0.50;99.90;;;;;;5027927;28;20124;-86
2021/12/18 07:17:33;;;;;;;129.40;40.40;;;0.40;99.90;;;;;;4962419;28;20031;-87
2021/12/18 07:20:23;;;;;;;124.68;42.17;;;0.50;99.90;;;;;;4979942;28;20085;-88
2021/12/18 07:23:17;;;;;;;112.18;37.97;;;0.50;99.90;;;;;;5017659;28;20065;-88
2021/12/18 07:26:12;;;;;;;116.53;37.75;;;0.50;99.90;;;;;;5006558;28;20077;-86
2021/12/18 07:29:20;;;;;;;122.07;42.33;;;0.50;99.90;;;;;;5027369;28;20050;-88
2021/12/18 07:32:11;;;;;;;132.25;41.45;;;0.50;99.90;;;;;;5013254;28;20038;-89
2021/12/18 07:35:12;;;;;;;105.65;38.78;;;0.60;99.90;;;;;;4995818;28;20110;-88
2021/12/18 07:38:00;;;;;;;113.45;39.10;;;0.50;99.90;;;;;;5015003;28;20120;-86
2021/12/18 07:40:48;;;;;;;116.75;39.25;;;0.60;99.90;;;;;;4995096;28;20446;-88
2021/12/18 07:43:36;;;;;;;112.63;39.75;;;0.50;99.90;;;;;;4990167;28;20054;-89
2021/12/18 07:46:25;;;;;;;106.00;38.72;;;0.60;99.90;;;;;;5015662;28;20133;-89
2021/12/18 07:49:13;;;;;;;155.93;41.75;;;0.60;99.90;;;;;;5020378;28;20057;-89
2021/12/18 07:52:04;;;;;;;235.80;43.75;;;0.60;99.90;;;;;;4997982;28;20065;-89
2021/12/18 08:59:03;;;;;;;77.05;28.98;;;0.90;99.90;;;;;;4982630;28;20050;-86
2021/12/18 09:48:46;;;;;;;50.07;24.03;;;1.40;99.90;;;;;;4866488;29;20034;-86
2021/12/18 09:56:38;;;;;;;48.90;24.13;;;1.60;99.90;;;;;;4928547;29;20456;-89
2021/12/18 10:47:08;;;;;;;34.30;18.48;;;1.80;99.90;;;;;;4977593;28;20045;-86
2021/12/18 10:59:22;;;;;;;35.03;19.40;;;1.80;99.90;;;;;;4914415;29;20032;-88
2021/12/18 11:14:17;;;;;;;36.00;20.55;;;2.10;99.90;;;;;;6030588;23;20066;31
2021/12/18 13:18:57;;;;;;;29.58;17.40;;;2.80;99.90;;;;;;5419809;23;20050;-90
2021/12/18 13:21:45;;;;;;;32.17;16.27;;;2.90;99.90;;;;;;4960903;28;20051;-88
2021/12/18 13:24:37;;;;;;;29.33;16.83;;;3.00;99.90;;;;;;4966350;28;20076;-89
2021/12/18 13:27:26;;;;;;;30.73;16.60;;;2.90;99.90;;;;;;4967421;28;20061;-90
2021/12/18 13:30:21;;;;;;;32.72;19.15;;;2.90;99.90;;;;;;4967913;28;20054;-88
2021/12/18 13:33:10;;;;;;;31.15;19.92;;;2.70;99.90;;;;;;4992300;28;20050;-88
2021/12/18 13:36:03;;;;;;;31.40;18.73;;;2.70;99.90;;;;;;4988299;28;20053;-86
2021/12/18 13:38:50;;;;;;;36.35;19.63;;;2.50;99.90;;;;;;4986420;28;20046;-88
2021/12/18 13:41:39;;;;;;;30.88;18.63;;;2.50;99.90;;;;;;4998084;28;20060;-87
2021/12/18 13:45:04;;;;;;;36.88;21.02;;;2.30;99.90;;;;;;4986587;28;20421;-89
2021/12/18 13:47:54;;;;;;;33.38;20.15;;;2.20;99.90;;;;;;4967351;28;20114;-90
2021/12/18 13:50:43;;;;;;;43.53;23.10;;;2.20;99.90;;;;;;4985123;28;20163;-89
2021/12/18 13:53:40;;;;;;;37.75;23.23;;;2.20;99.90;;;;;;4985224;28;20050;-87
2021/12/18 13:56:42;;;;;;;33.92;21.77;;;2.10;99.90;;;;;;4986958;28;20073;-86
2021/12/18 13:59:35;;;;;;;40.13;23.27;;;2.20;99.90;;;;;;4978549;28;20073;-89
2021/12/18 14:02:25;;;;;;;33.65;21.05;;;2.40;99.90;;;;;;4986654;28;20039;-86
2021/12/18 14:05:13;;;;;;;32.67;20.98;;;3.00;99.90;;;;;;4981556;28;20143;-87
2021/12/18 14:08:01;;;;;;;30.30;18.98;;;3.50;99.90;;;;;;4974560;28;20149;-87
2021/12/18 14:10:50;;;;;;;29.48;18.45;;;3.70;99.90;;;;;;4986859;28;20046;-89
2021/12/18 14:13:46;;;;;;;26.42;17.80;;;3.50;99.90;;;;;;4991027;28;20061;-85
2021/12/18 14:16:35;;;;;;;29.95;18.27;;;3.40;99.90;;;;;;4983959;28;20073;-86
2021/12/18 14:19:30;;;;;;;26.55;17.67;;;3.30;99.90;;;;;;4998560;28;20073;-86
2021/12/18 14:22:31;;;;;;;27.63;17.75;;;3.30;99.90;;;;;;4985772;28;20058;-88
2021/12/18 14:25:20;;;;;;;28.52;18.38;;;3.10;99.90;;;;;;4984050;28;20039;-88
2021/12/18 14:28:19;;;;;;;32.50;19.23;;;2.90;99.90;;;;;;4987083;28;20456;-87
2021/12/18 14:31:26;;;;;;;33.15;18.27;;;2.80;99.90;;;;;;4982652;28;20150;-88
2021/12/18 14:34:25;;;;;;;30.77;19.63;;;2.60;99.90;;;;;;4998780;28;20046;-88
2021/12/18 14:37:22;;;;;;;37.15;19.92;;;2.40;99.90;;;;;;4990748;28;20121;-88
2021/12/18 14:40:17;;;;;;;35.33;20.33;;;2.30;99.90;;;;;;4987195;28;20042;-88
2021/12/18 14:43:17;;;;;;;38.47;22.25;;;2.10;99.90;;;;;;4985164;28;20042;-88
2021/12/18 14:46:26;;;;;;;39.17;23.83;;;2.10;99.90;;;;;;4983724;28;20049;-89
2021/12/18 14:49:14;;;;;;;37.35;23.05;;;2.10;99.90;;;;;;4982955;28;20069;-88
2021/12/18 14:52:05;;;;;;;38.45;23.63;;;2.00;99.90;;;;;;4965337;28;20050;-89
2021/12/18 14:54:59;;;;;;;42.30;25.85;;;1.90;99.90;;;;;;4979652;28;20481;-88
2021/12/18 14:57:58;;;;;;;47.83;27.50;;;1.80;99.90;;;;;;4985767;28;20057;-88
2021/12/18 15:00:57;;;;;;;71.28;38.80;;;1.80;99.90;;;;;;4982599;28;20058;-89
2021/12/18 15:03:53;;;;;;;50.33;29.33;;;1.70;99.90;;;;;;4982377;28;20043;-88
2021/12/18 15:06:44;;;;;;;48.45;27.67;;;1.70;99.90;;;;;;4997902;28;20054;-86
2021/12/18 15:09:32;;;;;;;51.67;29.20;;;1.60;99.90;;;;;;4963150;28;20165;-87
2021/12/18 15:12:21;;;;;;;51.70;29.80;;;1.50;99.90;;;;;;4984264;28;20049;-86
2021/12/18 15:15:16;;;;;;;59.30;33.75;;;1.40;99.90;;;;;;4973810;28;20054;-90
2021/12/18 15:18:05;;;;;;;53.92;31.05;;;1.30;99.90;;;;;;4988079;28;20057;-89
2021/12/18 15:20:58;;;;;;;53.35;30.35;;;1.30;99.90;;;;;;4967235;28;20046;-85
2021/12/18 15:23:47;;;;;;;54.55;32.53;;;1.20;99.90;;;;;;4974864;28;20050;-89
2021/12/18 15:26:34;;;;;;;48.72;29.77;;;1.10;99.90;;;;;;4994821;28;20038;-87
2021/12/18 15:29:27;;;;;;;55.88;31.17;;;1.10;99.90;;;;;;4999657;28;20046;-89
2021/12/18 15:32:16;;;;;;;50.65;29.17;;;1.00;99.90;;;;;;4980842;28;20380;-88
2021/12/18 15:35:08;;;;;;;53.08;29.25;;;1.00;99.90;;;;;;4964194;28;20050;-87
2021/12/18 15:38:13;;;;;;;57.63;29.65;;;1.10;99.90;;;;;;4971832;28;20229;-88
2021/12/18 15:41:32;;;;;;;;;;;;;;;;;;;;;
2021/12/18 15:44:58;;;;;;;51.55;28.58;;;1.10;99.90;;;;;;4989705;28;20062;-89
2021/12/18 15:47:50;;;;;;;57.08;28.92;;;1.10;99.90;;;;;;4973075;28;20073;-89
2021/12/18 15:50:48;;;;;;;53.45;28.85;;;1.20;99.90;;;;;;4957774;28;20090;-88
2021/12/18 15:54:03;;;;;;;;;;;;;;;;;;;;;
2021/12/18 15:57:09;;;;;;;63.80;32.07;;;1.20;99.90;;;;;;4963020;28;20061;-86
2021/12/18 16:00:01;;;;;;;57.45;28.35;;;1.20;99.90;;;;;;4963335;28;20282;-89
2021/12/18 16:02:51;;;;;;;54.45;29.02;;;1.20;99.90;;;;;;4949113;28;20116;-86
2021/12/18 16:05:41;;;;;;;53.60;29.85;;;1.20;99.90;;;;;;4954604;28;20073;-89
2021/12/18 16:08:35;;;;;;;58.28;29.00;;;1.20;99.90;;;;;;4957113;28;20138;-89
2021/12/18 16:11:30;;;;;;;58.15;30.23;;;1.20;99.90;;;;;;4972764;28;20059;-90
2021/12/18 16:14:20;;;;;;;61.50;30.60;;;1.20;99.90;;;;;;4961946;28;20065;-87
2021/12/18 16:17:08;;;;;;;60.60;29.60;;;1.10;99.90;;;;;;4963982;28;20054;-88
2021/12/18 16:19:56;;;;;;;62.78;30.55;;;1.10;99.90;;;;;;4952952;28;20110;-88
2021/12/18 16:22:44;;;;;;;54.03;29.33;;;1.10;99.90;;;;;;4951980;28;20134;-89
2021/12/18 16:25:32;;;;;;;64.65;30.77;;;1.10;99.90;;;;;;4989915;28;20053;-89
2021/12/18 16:28:23;;;;;;;61.33;32.03;;;1.10;99.90;;;;;;4989513;28;20042;-88
2021/12/18 16:31:11;;;;;;;58.42;29.40;;;1.10;99.90;;;;;;4993350;28;20058;-87
2021/12/18 16:34:01;;;;;;;55.40;29.40;;;1.10;99.90;;;;;;4980361;28;20058;-87
2021/12/18 16:36:52;;;;;;;58.92;27.67;;;1.10;99.90;;;;;;4993815;28;20108;-88
2021/12/18 16:39:43;;;;;;;52.97;28.73;;;1.10;99.90;;;;;;4979906;28;20107;-87
2021/12/18 16:42:31;;;;;;;53.42;28.52;;;1.10;99.90;;;;;;4996083;28;20068;-88
2021/12/18 16:45:23;;;;;;;55.47;28.83;;;1.10;99.90;;;;;;4986891;28;20038;-85
2021/12/18 16:48:17;;;;;;;57.95;30.23;;;1.20;99.90;;;;;;4999205;28;20073;-88
2021/12/18 16:51:06;;;;;;;50.63;28.40;;;1.20;99.90;;;;;;4994233;28;20052;-86
2021/12/18 16:54:02;;;;;;;59.33;30.02;;;1.10;99.90;;;;;;5006363;28;20058;-89
2021/12/18 16:56:50;;;;;;;61.53;29.50;;;1.20;99.90;;;;;;4993197;28;20057;-89
2021/12/18 16:59:37;;;;;;;56.05;28.23;;;1.10;99.90;;;;;;5008584;28;20400;-86
2021/12/18 17:02:27;;;;;;;52.65;28.67;;;1.20;99.90;;;;;;4972260;28;20070;-87
2021/12/18 17:05:17;;;;;;;53.75;28.02;;;1.20;99.90;;;;;;4979514;28;20093;-88
2021/12/18 17:08:06;;;;;;;53.15;29.20;;;1.20;99.90;;;;;;4982807;28;20066;-87
2021/12/18 17:10:57;;;;;;;53.70;29.13;;;1.30;99.90;;;;;;4985811;28;20050;-87
2021/12/18 17:13:50;;;;;;;52.40;27.55;;;1.20;99.90;;;;;;4981207;28;20073;-87
2021/12/18 17:16:49;;;;;;;50.55;29.05;;;1.20;99.90;;;;;;4985627;28;20081;-89
2021/12/18 17:19:43;;;;;;;59.60;30.75;;;1.20;99.90;;;;;;4988601;28;20057;-88
2021/12/18 17:22:50;;;;;;;55.95;30.40;;;1.20;99.90;;;;;;4964224;28;20116;-87
2021/12/18 17:25:52;;;;;;;66.97;32.88;;;1.20;99.90;;;;;;4994618;28;20115;-86
2021/12/18 17:28:39;;;;;;;57.15;30.10;;;1.20;99.90;;;;;;4972648;28;20070;-89
2021/12/18 17:31:32;;;;;;;63.92;32.15;;;1.20;99.90;;;;;;4985137;28;20074;-88
2021/12/18 17:34:20;;;;;;;68.47;36.67;;;1.20;99.90;;;;;;4972176;28;20112;-85
2021/12/18 17:37:08;;;;;;;57.55;31.55;;;1.10;99.90;;;;;;4970722;28;20100;-87
2021/12/18 17:39:55;;;;;;;57.83;30.17;;;1.10;99.90;;;;;;4985309;28;20129;-88
2021/12/18 17:42:44;;;;;;;57.00;31.13;;;1.10;99.90;;;;;;4975631;28;20065;-87
2021/12/18 17:45:40;;;;;;;60.53;32.03;;;1.10;99.90;;;;;;4984843;28;20046;-88
2021/12/18 17:48:29;;;;;;;60.75;30.55;;;1.10;99.90;;;;;;4997544;28;20555;-88
2021/12/18 17:51:37;;;;;;;59.22;31.38;;;1.10;99.90;;;;;;4993475;28;20049;-89
2021/12/18 17:54:28;;;;;;;61.80;31.90;;;1.10;99.90;;;;;;4998784;28;20093;-88
2021/12/18 17:57:15;;;;;;;64.85;31.67;;;1.10;99.90;;;;;;4979277;28;20042;-86
2021/12/18 18:00:16;;;;;;;62.33;33.33;;;1.10;99.90;;;;;;4983576;28;20154;-88
2021/12/18 18:03:04;;;;;;;62.80;33.45;;;1.10;99.90;;;;;;4977275;28;20136;-89
2021/12/18 18:06:04;;;;;;;66.72;33.00;;;1.20;99.90;;;;;;4987190;28;20428;-85
2021/12/18 18:08:55;;;;;;;60.60;32.72;;;1.10;99.90;;;;;;5000435;28;20038;-88
2021/12/18 18:11:43;;;;;;;70.03;34.75;;;1.10;99.90;;;;;;5001372;28;20117;-87
2021/12/18 18:14:30;;;;;;;67.22;34.83;;;1.00;99.90;;;;;;4974308;28;20486;-87
2021/12/18 18:17:19;;;;;;;65.82;34.03;;;1.10;99.90;;;;;;4981968;28;20058;-88
2021/12/18 18:20:08;;;;;;;67.40;34.92;;;1.00;99.90;;;;;;4970884;28;20042;-88
2021/12/18 18:22:57;;;;;;;68.40;34.83;;;1.10;99.90;;;;;;4978879;28;20057;-87
2021/12/18 18:25:46;;;;;;;68.13;33.33;;;1.00;99.90;;;;;;4978416;28;20112;-87
2021/12/18 18:28:35;;;;;;;68.13;34.83;;;1.10;99.90;;;;;;4983418;28;20062;-89
2021/12/18 18:31:24;;;;;;;67.68;33.60;;;1.10;99.90;;;;;;4968682;28;20058;-88
2021/12/18 18:34:12;;;;;;;68.55;34.97;;;1.10;99.90;;;;;;4981752;28;20041;-89
2021/12/18 18:37:05;;;;;;;74.65;37.30;;;1.10;99.90;;;;;;4981820;28;20050;-90
2021/12/18 18:39:54;;;;;;;80.80;39.50;;;1.10;99.90;;;;;;4966078;28;20049;-89
2021/12/18 18:42:44;;;;;;;99.18;46.78;;;1.10;99.90;;;;;;4979365;28;20383;-89
2021/12/18 18:45:34;;;;;;;74.57;36.03;;;1.10;99.90;;;;;;4983496;28;20046;-87
2021/12/18 18:48:27;;;;;;;80.75;39.58;;;1.10;99.90;;;;;;4982672;28;20039;-90
2021/12/18 18:51:20;;;;;;;79.13;38.78;;;1.00;99.90;;;;;;4970365;28;20504;-89
2021/12/18 18:54:09;;;;;;;79.07;39.13;;;1.00;99.90;;;;;;4983726;28;20050;-88
2021/12/18 18:56:58;;;;;;;80.07;40.05;;;1.00;99.90;;;;;;4991002;28;20141;-87
2021/12/18 18:59:49;;;;;;;84.75;41.35;;;1.00;99.90;;;;;;4996256;28;20057;-88
2021/12/18 19:02:37;;;;;;;83.60;39.33;;;1.00;99.90;;;;;;4988379;28;20077;-89
2021/12/18 19:05:27;;;;;;;81.80;39.10;;;1.00;99.90;;;;;;4991186;28;20061;-85
2021/12/18 19:08:25;;;;;;;84.53;42.33;;;1.10;99.90;;;;;;4974359;28;20459;-87
2021/12/18 19:11:20;;;;;;;81.40;39.78;;;1.10;99.90;;;;;;4994854;28;20129;-86
2021/12/18 19:14:16;;;;;;;79.13;39.72;;;1.20;99.90;;;;;;4980608;28;20042;-88
2021/12/18 19:17:25;;;;;;;75.45;37.38;;;1.20;99.90;;;;;;4973511;28;20114;-87
2021/12/18 19:20:28;;;;;;;;;;;;;;;;;;;;;
2021/12/18 19:27:42;;;;;;;81.20;41.65;;;1.10;99.90;;;;;;5001044;28;20065;-87
2021/12/18 19:30:36;;;;;;;75.93;36.28;;;1.10;99.90;;;;;;4986782;28;20129;-91
2021/12/18 19:33:28;;;;;;;;;;;1.10;99.90;;;;;;4992547;28;20149;-87
2021/12/18 19:36:18;;;;;;;76.95;35.03;;;1.10;99.90;;;;;;4995615;28;19932;-89
2021/12/18 19:39:06;;;;;;;71.93;36.58;;;1.10;99.90;;;;;;4975422;28;20073;-89
2021/12/18 19:41:57;;;;;;;77.80;35.67;;;1.10;99.90;;;;;;4973358;28;20121;-88
2021/12/18 19:44:48;;;;;;;79.70;38.13;;;1.10;99.90;;;;;;4975597;28;20111;-90
2021/12/18 19:47:45;;;;;;;83.88;39.28;;;1.20;99.90;;;;;;4964309;28;20042;-89
2021/12/18 19:50:37;;;;;;;74.60;38.03;;;1.20;99.90;;;;;;4981604;28;20034;-90
2021/12/18 19:53:26;;;;;;;85.93;39.58;;;1.20;99.90;;;;;;4981789;28;20046;-87
2021/12/18 19:56:14;;;;;;;76.00;37.33;;;1.20;99.90;;;;;;4988290;28;20064;-88
2021/12/18 19:59:16;;;;;;;85.55;39.78;;;1.10;99.90;;;;;;4996038;28;20061;-89
2021/12/18 20:05:38;;;;;;;80.95;38.50;;;1.10;99.90;;;;;;4994940;28;20042;-88
2021/12/18 20:08:26;;;;;;;85.30;39.55;;;1.10;99.90;;;;;;4988015;28;20047;-88
2021/12/18 20:11:16;;;;;;;88.15;39.90;;;1.00;99.90;;;;;;4997693;28;20095;-87
2021/12/18 20:14:04;;;;;;;90.47;40.55;;;1.00;99.90;;;;;;4993017;28;20402;-89
2021/12/18 20:16:52;;;;;;;89.65;39.70;;;1.00;99.90;;;;;;4961513;28;20444;-90
2021/12/18 20:19:41;;;;;;;83.93;39.65;;;1.00;99.90;;;;;;4974738;28;20061;-90
2021/12/18 20:22:30;;;;;;;91.40;40.85;;;1.00;99.90;;;;;;4965075;28;20542;-89
2021/12/18 20:25:17;;;;;;;84.38;41.08;;;1.00;99.90;;;;;;4974245;28;20105;-87
2021/12/18 20:28:07;;;;;;;94.97;42.10;;;1.00;99.90;;;;;;4974101;28;20047;-87
2021/12/18 20:30:55;;;;;;;92.18;40.30;;;1.00;99.90;;;;;;4971582;28;20105;-88
2021/12/18 20:33:44;;;;;;;92.18;41.83;;;0.90;99.90;;;;;;4985452;28;20050;-86
2021/12/18 20:36:33;;;;;;;97.72;41.70;;;0.90;99.90;;;;;;4954717;28;20055;-88
2021/12/18 20:39:22;;;;;;;99.05;43.47;;;0.90;99.90;;;;;;4978234;28;20043;-88
2021/12/18 20:42:10;;;;;;;100.75;43.05;;;0.90;99.90;;;;;;4981195;28;20050;-89
2021/12/18 20:45:00;;;;;;;107.75;45.70;;;0.90;99.90;;;;;;4976901;28;20057;-90
2021/12/18 20:47:50;;;;;;;97.57;44.55;;;0.80;99.90;;;;;;4977003;28;20043;-90
2021/12/18 20:51:31;;;;;;;104.53;44.15;;;0.80;99.90;;;;;;4977779;28;20047;-89
2021/12/18 20:54:33;;;;;;;107.00;43.95;;;0.90;99.90;;;;;;4954195;28;20047;-88
2021/12/18 20:57:39;;;;;;;103.82;44.55;;;0.80;99.90;;;;;;4978257;28;20047;-87
2021/12/18 21:05:15;;;;;;;105.88;45.08;;;0.80;99.90;;;;;;4833488;29;20198;-88
2021/12/18 21:45:22;;;;;;;96.32;42.33;;;0.70;99.90;;;;;;4837332;29;20217;-88
2021/12/18 21:48:13;;;;;;;104.30;44.78;;;0.70;99.90;;;;;;4899005;29;20044;-87